cliquez pour ajouter le site Runraid à vos favoris  English version (google)  Retour à l'accueil Ecrire à l'auteur du site Runraid : Michel Jourdan



Les prochaines courses


Les derniers résultats

cliquez pour visualiser la page complète relatant la chronologie des éruptions du Piton de la Fournaise
éruptions Piton de la Fournaise


Ile de La Réunion

 Diagonale des Fous 

Ecrire au créateur du site : Michel Jourdan
Contact


2015-12-05 - 10km HandiSport Téléthon

Pour consulter le palmarès d'un coureur, un clic sur son nom !

Vous avez des remarques, corrections, ... sur ces résultats , un clic sur --> pour me transmettre toute information concernant les classements


10km HandiSport Téléthon - 2015 : classement des 164 finishers
Place Nom Temps Cat. Club Sexe Clt/cat.
Place Nom Temps Cat. Club Sexe Clt/cat.
1 HAUSS David 00:30:26 SEM CASL M 154
2 LEBON Francois 00:30:53 V1M CASM M 1 V1M 147
3 BOUCHE Mickael 00:31:49 SEM CASL M 2 SEM 18
4 GONTHIER Cedric 00:33:03 SEM - M 3 SEM 106
5 Robert Jacky 00:35:44 V1M - M 2 V1M 172
6 Maillot Jean Dany 00:36:02 SEM - M 4 SEM 190
7 BARDEL FRANCOIS 00:36:11 SEM KINEPOD974 M 5 SEM 101
8 NARSOU JEAN CLAUDE MAT 00:36:39 SEM RDB M 6 SEM 100
9 MICHELOT MARC 00:37:00 SEM RCSD M 7 SEM 54
10 Ellama Roland 00:37:48 V2M - M 1 V2M 176
11 Fontaine Bernard 00:38:03 V1M - M 3 V1M 175
12 GASTRIN ALANNE 00:38:06 ESM CAPOSS M 1 ESM 132
13 DUBARD KEVIN 00:38:33 JUM - M 1 JUM 123
14 SAMBENOUN MARCELIN 00:38:34 V2M - M 2 V2M 84
15 GRONDIN ludovic 00:38:44 SEM - M 8 SEM 31
16 CABANES DAVID 00:39:13 SEM CAPOSS M 9 SEM 103
17 BOYER Florent 00:39:15 ESM - M 2 ESM 71
18 HEURTIN FREDERIC 00:39:45 V1M - M 4 V1M 138
19 Reoune Christian 00:40:04 V2M ACBP M 3 V2M 36
20 OMARJEE sulliman 00:40:10 V2M - M 4 V2M 59
21 DEBAIZE ANATOLE 00:40:13 SEM DENIV M 10 SEM 73
22 GUYOT Daniel 00:40:17 V2M - M 5 V2M 33
23 PAILLAT Vincent 00:40:27 SEM - M 11 SEM 86
24 JOBERT CHRISTIAN 00:40:35 V3M AC ENTENTE M 1 V3M 66
25 CASSARO frederic 00:40:52 V1M - M 5 V1M 93
26 ALIDOR NICOLAS 00:40:55 SEM DENIV M 12 SEM 51
27 Hoarau Jean Calixte 00:41:06 V2M - M 6 V2M 169
28 LALLEMAND JULIEN 00:41:06 ESM - M 3 ESM 134
29 Injiraki Alex 00:41:12 V1M - M 6 V1M 198
30 LAW TCHI KUN JEAN BERNARD 00:41:18 V2M DENIV M 7 V2M 28
31 Melobosis Gilbert 00:41:22 V2M - M 8 V2M 168
32 DAREL LUCIANO JEAN 00:41:25 SEM - M 13 SEM 139
33 NARSOU JEAN CLAUDE 00:41:37 V2M RDB M 9 V2M 102
34 MICHELOT Pascal 00:41:49 V2M - M 10 V2M 75
35 FAOUILA HAFAITAHOU 00:42:00 SEM - M 14 SEM 120
36 TURNER Nicolas 00:42:00 SEM - M 15 SEM 2
37 Guinfolleau Joel 00:42:06 V3M - M 2 V3M 115
38 MORIN MARIE DANIELE 00:42:07 V1F - F 1ere F 116
39 DELAUNAY DIDIER 00:42:08 SEM CAPOSS M 16 SEM 15
40 COURREAU MICHAEL 00:42:12 SEM DENIV M 17 SEM 44
41 KERALDY PIERRE 00:42:29 V2M - M 11 V2M 90
42 DENNEMONT SYLVAIN 00:42:46 V2M ACBP M 12 V2M 9
43 DORBY THEODORE 00:43:18 V2M ACSP M 13 V2M 24
44 VIRASSAMY NICOLAS 00:43:23 CAM - M 1 CAM 149
45 JOURDAN fabrice 00:43:27 SEM - M 18 SEM 67
46 GUICHARD GILLES 00:43:32 V2M - M 14 V2M 127
47 CELTON Nathalie 00:43:39 SEF - F 2eme F / 1 SEF 61
48 AMICE Sebastien 00:43:41 SEM - M 19 SEM 60
49 Lorian Bernard 00:43:42 V2M - M 15 V2M 157
50 FONTAINE YOHANN 00:43:51 SEM - M 20 SEM 39
51 LAFFORGUE BERNARD 00:44:25 V3M - M 3 V3M 35
52 BERTHELOT franck 00:44:40 V1M - M 7 V1M 94
53 rouquette Pierre 00:44:59 SEM - M 21 SEM 12
54 SINAMALE SOSTHENE 00:45:04 V2M - M 16 V2M 114
55 MARION Fabienne 00:45:16 V1F - F 3eme F / 2 V1F 99
56 HOAREAU MYRIELLE 00:45:29 V2F - F 4eme F / 1 V2F 78
57 Sery Stephane 00:46:07 M - M 1 M 177
58 HY CHANDARA 00:46:09 SEM DENIV M 22 SEM 98
59 Pobrezo Henri Claude 00:46:18 SEM - M 23 SEM 156
60 HOARAU JEAN CLAUDE 00:46:33 V2M ACSP M 17 V2M 25
61 TURPIN Marie gisele 00:46:47 V2F - F 5eme F / 2 V2F 17
62 ACAR SERGE 00:47:21 V1M - M 8 V1M 119
63 RIBOTH GEORGES MARIE 00:47:27 V2M - M 18 V2M 170
64 MINIAMA MARIE LAURE 00:47:38 SEF - F 6eme F / 2 SEF 37
65 Barbin Germain 00:47:57 M - M 2 M 194
66 DEJEAN FREDERIC NELSON 00:48:09 V1M - M 9 V1M 141
67 ABDOU salami 00:48:21 SEM - M 24 SEM 64
68 COSNEAU Romain 00:48:23 SEM - M 25 SEM 7
69 Ribotte Jean Bernard 00:48:33 V1M - M 10 V1M 167
70 LEVEQUE Louisa 00:48:39 V1F - F 7eme F / 3 V1F 55
71 DEMOUSTIER LAURA 00:48:41 JUF CSSDA F 8eme F / 1 JUF 96
72 Dossard 163 00:48:44 - M 163
73 Gay FREDERIC 00:48:45 SEM - M 26 SEM 164
74 Valcares Michel 00:48:46 V2M - M 19 V2M 178
75 Totaconan Deborah 00:48:51 V2F - F 9eme F / 3 V2F 181
76 Lepetit Florence 00:49:05 V1F - F 10eme F / 4 V1F 160
77 SINAMALE Harry 00:49:48 V1M - M 11 V1M 30
78 FAUSTIN SERGE 00:49:48 V1M - M 12 V1M 83
79 JOSEPH LUC MARCEL 00:49:59 SEM CAPOSS M 27 SEM 105
80 FAUSTIN DOMINIQUE 00:50:10 V1F - F 11eme F / 5 V1F 82
81 Merchier Christophe 00:50:34 V1M - M 13 V1M 179
82 TESSIER Christian 00:50:43 V2M - M 20 V2M 74
83 BRIFFAUT Maria paula 00:50:53 V1F - F 12eme F / 6 V1F 62
84 Dutel Roland 00:51:15 V1M - M 14 V1M 193
85 BOURA RAYNAT 00:51:24 SEF - F 13eme F / 3 SEF 137
86 TOUSSAINT florian 00:51:25 SEM - M 28 SEM 79
87 BOYER Christophe 00:51:25 SEM - M 29 SEM 91
88 INCANA PATRICE 00:51:45 V1M RCSD M 15 V1M 70
89 RENAUD stephanie 00:51:45 V1F - F 14eme F / 7 V1F 34
90 Boyer Oderic 00:51:50 V1M - M 16 V1M 183
91 DEMOUSTIER JEAN FRANCOIS 00:52:04 V1M CSSDA M 17 V1M 95
92 LOZOUET Alicia 00:52:19 SEF - F 15eme F / 4 SEF 47
93 MINGANT Florent 00:52:47 SEM - M 30 SEM 32
94 BAPTISTE MURIELLE 00:52:54 SEF - F 16eme F / 5 SEF 140
95 Bonneau Corinne 00:53:17 V2F - F 17eme F / 4 V2F 158
96 DEVEAUX PASCALINE 00:53:54 SEF RDB F 18eme F / 6 SEF 151
97 DEVEAUX FREDERIC 00:53:56 V1M RDB M 18 V1M 152
98 TARBY SUZY 00:54:15 V1F - F 19eme F / 8 V1F 77
99 TARBY MICHAEL 00:54:16 V1M - M 19 V1M 76
100 PAYET LUCIE 00:54:21 SEF - F 20eme F / 7 SEF 92
101 LABBE ACHILLE 00:54:22 V1M - M 20 V1M 135
102 Clain Sebastien 00:54:47 CAM - M 2 CAM 165
103 PICARD PAUL FLORENT 00:54:55 SEM - M 31 SEM 107
104 LANCIANI Sophie 00:54:55 V1F - F 21eme F / 9 V1F 27
105 SINAMALE valerie 00:55:03 V1F - F 22eme F / 10 V1F 29
106 Gace Huguette 00:55:04 SEF - F 23eme F / 8 SEF 174
107 Le Dreau Eddy 00:55:11 V1M - M 21 V1M 180
108 Sorre Veronique 00:55:32 V1F - F 24eme F / 11 V1F 184
109 CASCADE FREDERIQUE 00:56:13 V2F - F 25eme F / 5 V2F 122
110 BLAS Maurice 00:56:30 V2M - M 21 V2M 3
111 LAHAYE Marjolaine 00:56:47 SEF - F 26eme F / 9 SEF 13
112 GREYS Gilles 00:57:12 V1M - M 22 V1M 43
113 AUGUSTINE NAYABOURY MARIE EDMEE 00:57:46 V2F - F 27eme F / 6 V2F 85
114 TAOCHY Nicolas 00:57:50 SEM - M 32 SEM 81
115 MAILLOT PIERRE 00:57:50 V2M - M 22 V2M 130
116 LON MON TOY MARINELLE 00:57:50 V1F - F 28eme F / 12 V1F 131
117 LAPIERRE Florence 00:58:02 SEF - F 29eme F / 10 SEF 58
118 CHOUCAIR YOUSSEF 00:58:31 V3M RCSD M 4 V3M 40
119 DE PAERMENTIER THOMAS 00:58:49 SEM - M 33 SEM 104
120 Siroux Elisabeth 00:58:51 SEF - F 30eme F / 11 SEF 161
121 BOUCICAUD Florence 00:58:54 V1F - F 31eme F / 13 V1F 19
122 COMBE Stephane 00:59:26 SEM - M 34 SEM 42
123 YSARD Sebastien 00:59:26 V1M - M 23 V1M 50
124 JAOUEN JORDAN 00:59:26 SEM - M 35 SEM 46
125 LANGARD Manuel 00:59:26 SEM - M 36 SEM 41
126 Robert Anita 00:59:30 V1M - M 24 V1M 171
127 CONZALES DAMIEN 00:59:35 SEM - M 37 SEM 124
128 Moler Georges 00:59:39 V2M - M 23 V2M 144
129 BOISSINOT Matthieu 00:59:39 SEM - M 38 SEM 65
130 LE BARILLEC CECILE 00:59:43 V2F - F 32eme F / 7 V2F 14
131 QUIQUEMPOIX Jean Claude 01:00:25 V1M - M 25 V1M 38
132 BERRIN Eric 01:00:35 V1M - M 26 V1M 63
133 MOLINIER Maxence 01:00:58 SEM - M 39 SEM 97
134 AMO Mathieu 01:01:51 SEM - M 40 SEM 8
135 LOCATE HAUSSMAN 01:02:57 V2M - M 24 V2M 155
136 PONIN sida 01:03:32 SEF - F 33eme F / 12 SEF 56
137 Araste Martine 01:03:38 V2F - F 34eme F / 8 V2F 173
138 VERZEAUX Melanie 01:03:38 SEF - F 35eme F / 13 SEF 57
139 LABBE GITA 01:03:40 SEF - F 36eme F / 14 SEF 136
140 Tillemont Elodie 01:03:51 SEF - F 37eme F / 15 SEF 192
141 BAZIL Korane 01:04:58 SEF - F 38eme F / 16 SEF 52
142 PEYRUSE Christelle 01:04:59 V1F - F 39eme F / 14 V1F 87
143 Poleya Nathalie 01:05:39 V2F - F 40eme F / 9 V2F 182
144 VAR lucas 01:05:39 V3M - M 5 V3M 80
145 Narsou Marie Josee 01:05:52 V2F - F 41eme F / 10 V2F 166
146 LEBRETON Juliane 01:07:03 SEF - F 42eme F / 17 SEF 89
147 ROULOF Claudie 01:08:39 V1F - F 43eme F / 15 V1F 26
148 GEFFRAULT GINA 01:09:07 V2F - F 44eme F / 11 V2F 121
149 Hairault Cecile 01:09:17 SEF - F 45eme F / 18 SEF 189
150 MAYER VIRGINIE 01:09:36 SEF CAPOSS F 46eme F / 19 SEF 23
151 MAYER CEDRIC 01:09:37 V1M - M 27 V1M 22
152 BURBAN Amandine 01:09:39 SEF - F 47eme F / 20 SEF 6
153 Hairault J Pierre 01:09:52 V2M - M 25 V2M 186
154 LOF Marie Patricia 01:11:02 V1F - F 48eme F / 16 V1F 53
155 Dennemont Guylene 01:11:18 V2F - F 49eme F / 12 V2F 191
156 Hairault Marion 01:12:03 SEF - F 50eme F / 21 SEF 187
157 Welmant Julien 01:12:30 ESM - M 4 ESM 159
158 GUIRAUD jean 01:16:21 V3M - M 6 V3M 11
159 GONFO JULIE 01:16:35 SEF - F 51eme F / 22 SEF 133
160 Lessort Stephen 01:16:41 V5M CASM M 1 V5M 185
161 CARTON JOCELYNE 01:24:14 V2M - M 26 V2M 142
162 GEORGET MARIE THERESE 01:26:48 V4F - F 52eme F / 1 V4F 128
163 RICOCE Estelle 01:27:12 SEF - F 53eme F / 23 SEF 45
164 MONG MANE Elsa 01:27:12 ESF - F 54eme F / 1 ESF 16


ReferencementCe site est listé dans la catégorie Sport : Sports extrêmes Dictionnaire
| Accueil | La Réunion  Vue du ciel | Météo | Cyclones | Volcan | Cirques de Mafate , Cilaos , Salazie | Photos Randonnées | Randonnées Réunion: Randos Espiègle , Courses montagne | Diagonale des Fous |  Marathon des Sables | Voyages Les stats du site | Fonds écran | Plan du site | Blog de runraid | Galerie photos Sport Réunion |